createdAt,value
2019-04-21T00:00:07.185Z,99264.34
2019-04-21T00:02:37.492Z,99268.89
2019-04-21T00:05:24.746Z,99267.91
2019-04-21T00:08:05.027Z,99265.20
2019-04-21T00:10:36.379Z,99266.36
2019-04-21T00:12:57.405Z,99269.72
2019-04-21T00:15:20.469Z,99261.83
2019-04-21T00:17:49.790Z,99259.22
2019-04-21T00:20:27.441Z,99257.36
2019-04-21T00:22:58.755Z,99255.84
2019-04-21T00:25:36.182Z,99254.72
2019-04-21T00:28:17.009Z,99255.27
2019-04-21T00:30:47.046Z,99247.89
2019-04-21T00:33:05.268Z,99248.25
2019-04-21T00:35:28.963Z,99244.61
2019-04-21T00:38:19.074Z,99242.62
2019-04-21T00:40:56.636Z,99236.57
2019-04-21T00:43:19.593Z,99239.50
2019-04-21T00:45:47.081Z,99238.02
2019-04-21T00:48:27.334Z,99236.27
2019-04-21T00:51:14.597Z,99234.27
2019-04-21T00:53:38.389Z,99232.16
2019-04-21T00:58:33.156Z,99227.53
2019-04-21T01:01:28.415Z,99230.61
2019-04-21T01:03:57.866Z,99228.94
2019-04-21T01:06:29.143Z,99225.74
2019-04-21T01:09:01.246Z,99225.60
2019-04-21T01:11:42.578Z,99224.77
2019-04-21T01:14:09.184Z,99224.05
2019-04-21T01:16:39.269Z,99221.80
2019-04-21T01:19:05.064Z,99222.67
2019-04-21T01:21:15.136Z,99220.21
2019-04-21T01:23:44.658Z,99223.48
2019-04-21T01:26:29.617Z,99222.67
2019-04-21T01:29:08.317Z,99225.01
2019-04-21T01:31:36.585Z,99223.37
2019-04-21T01:34:09.511Z,99223.36
2019-04-21T01:36:41.532Z,99215.61
2019-04-21T01:39:19.639Z,99213.34
2019-04-21T01:41:46.302Z,99213.49
2019-04-21T01:44:19.673Z,99214.59
2019-04-21T01:46:45.882Z,99209.03
2019-04-21T01:49:11.513Z,99207.87
2019-04-21T01:52:03.100Z,99209.15
2019-04-21T01:54:31.471Z,99210.39
2019-04-21T01:57:04.335Z,99212.88
2019-04-21T01:59:28.310Z,99213.77
2019-04-21T02:02:06.225Z,99213.86
2019-04-21T02:04:41.826Z,99217.23
2019-04-21T02:07:11.477Z,99214.41
2019-04-21T02:09:56.806Z,99208.77
2019-04-21T02:12:14.763Z,99204.31
2019-04-21T02:14:50.358Z,99203.09
2019-04-21T02:17:13.325Z,99196.91
2019-04-21T02:19:43.411Z,99200.03
2019-04-21T02:22:47.407Z,99199.84
2019-04-21T02:25:15.135Z,99195.59
2019-04-21T02:28:05.590Z,99193.81
2019-04-21T02:30:49.286Z,99187.36
2019-04-21T02:33:18.527Z,99185.31
2019-04-21T02:38:16.543Z,99179.05
2019-04-21T02:43:18.614Z,99175.81
2019-04-21T02:48:27.913Z,99173.09
2019-04-21T02:50:50.078Z,99167.67
2019-04-21T02:54:11.931Z,99166.25
2019-04-21T02:56:01.618Z,99167.55
2019-04-21T02:58:57.001Z,99160.92
2019-04-21T03:01:12.448Z,99165.88
2019-04-21T03:03:41.793Z,99166.19
2019-04-21T03:06:15.396Z,99159.58
2019-04-21T03:11:19.517Z,99160.16
2019-04-21T03:14:07.143Z,99156.19
2019-04-21T03:19:07.214Z,99148.69
2019-04-21T03:21:38.263Z,99145.97
2019-04-21T03:24:13.787Z,99142.95
2019-04-21T03:26:48.369Z,99140.16
2019-04-21T03:29:12.604Z,99133.14
2019-04-21T03:42:18.754Z,99121.41
2019-04-21T03:44:40.000Z,99118.46
2019-04-21T03:47:02.177Z,99114.41
2019-04-21T03:49:43.709Z,99113.96
2019-04-21T03:52:03.201Z,99113.12
2019-04-21T03:54:37.365Z,99113.09
2019-04-21T03:59:40.656Z,99109.37
2019-04-21T04:02:14.824Z,99102.81
2019-04-21T04:07:25.065Z,99099.16
2019-04-21T04:10:08.405Z,99096.98
2019-04-21T04:12:19.025Z,99098.47
2019-04-21T04:14:50.168Z,99097.82
2019-04-21T04:17:25.545Z,99097.10
2019-04-21T04:20:01.102Z,99100.07
2019-04-21T04:22:43.434Z,99101.42
2019-04-21T04:27:49.482Z,99104.52
2019-04-21T04:30:18.700Z,99106.56
2019-04-21T04:37:46.980Z,99102.05
2019-04-21T04:40:19.676Z,99108.76
2019-04-21T04:45:30.624Z,99106.87
2019-04-21T04:47:59.793Z,99107.01
2019-04-21T04:50:29.900Z,99107.55
2019-04-21T04:53:03.578Z,99103.08
2019-04-21T04:55:31.957Z,99105.30
2019-04-21T05:00:34.483Z,99102.21
2019-04-21T05:05:53.251Z,99104.07
2019-04-21T05:08:33.529Z,99101.82
2019-04-21T05:13:26.009Z,99106.78
2019-04-21T05:16:06.219Z,99106.61
2019-04-21T05:18:40.170Z,99109.62
2019-04-21T05:21:09.051Z,99110.80
2019-04-21T05:23:28.771Z,99103.38
2019-04-21T05:25:45.870Z,99102.69
2019-04-21T05:28:16.663Z,99105.08
2019-04-21T05:31:06.310Z,99099.21
2019-04-21T05:33:39.864Z,99100.44
2019-04-21T05:36:15.550Z,99095.62
2019-04-21T05:38:41.845Z,99096.11
2019-04-21T05:41:13.066Z,99096.86
2019-04-21T05:43:51.705Z,99096.88
2019-04-21T05:46:25.375Z,99094.78
2019-04-21T05:48:52.294Z,99097.19
2019-04-21T05:51:25.780Z,99093.72
2019-04-21T05:54:09.291Z,99099.02
2019-04-21T05:56:31.864Z,99103.92
2019-04-21T05:59:03.396Z,99101.94
2019-04-21T06:04:07.254Z,99095.17
2019-04-21T06:06:43.591Z,99100.97
2019-04-21T06:09:11.037Z,99094.73
2019-04-21T06:11:36.034Z,99096.08
2019-04-21T06:14:14.006Z,99089.44
2019-04-21T06:16:49.842Z,99086.00
2019-04-21T06:19:11.385Z,99085.83
2019-04-21T06:21:45.189Z,99083.31
2019-04-21T06:24:18.697Z,99079.90
2019-04-21T06:27:00.423Z,99080.25
2019-04-21T06:29:23.738Z,99077.55
2019-04-21T06:34:51.724Z,99072.02
2019-04-21T06:37:34.975Z,99073.31
2019-04-21T06:39:51.663Z,99064.62
2019-04-21T06:42:18.429Z,99065.70
2019-04-21T06:47:27.667Z,99058.14
2019-04-21T06:49:42.817Z,99059.30
2019-04-21T06:52:42.308Z,99052.95
2019-04-21T06:54:54.888Z,99046.22
2019-04-21T06:57:22.144Z,99033.77
2019-04-21T06:59:54.280Z,99016.15
2019-04-21T07:05:00.471Z,98991.17
2019-04-21T07:07:27.869Z,98998.89
2019-04-21T07:10:22.845Z,99003.02
2019-04-21T07:12:56.286Z,99017.03
2019-04-21T07:15:25.181Z,99008.77
2019-04-21T07:18:00.158Z,98990.00
2019-04-21T07:20:31.442Z,98986.61
2019-04-21T07:23:07.006Z,98983.27
2019-04-21T07:25:34.277Z,99003.16
2019-04-21T07:28:03.059Z,99001.86
2019-04-21T07:33:37.782Z,98974.39
2019-04-21T07:35:37.333Z,98984.78
2019-04-21T07:38:11.638Z,98988.55
2019-04-21T07:40:36.586Z,98985.36
2019-04-21T07:43:05.632Z,98991.24
2019-04-21T07:45:38.727Z,98978.09
2019-04-21T07:48:16.056Z,98981.94
2019-04-21T07:50:51.936Z,98969.19
2019-04-21T07:53:27.747Z,98954.19
2019-04-21T07:55:59.536Z,98958.84
2019-04-21T07:58:45.585Z,98949.15
2019-04-21T08:01:18.267Z,98932.80
2019-04-21T08:03:46.587Z,98973.52
2019-04-21T08:06:24.117Z,98957.50
2019-04-21T08:08:49.023Z,98944.55
2019-04-21T08:11:16.698Z,98958.70
2019-04-21T08:13:55.157Z,98951.59
2019-04-21T08:16:25.675Z,98963.45
2019-04-21T08:18:52.461Z,98960.33
2019-04-21T08:21:20.740Z,98938.92
2019-04-21T08:23:55.277Z,98924.36
2019-04-21T08:26:34.238Z,98906.69
2019-04-21T08:29:06.691Z,98911.71
2019-04-21T08:31:34.050Z,98911.74
2019-04-21T08:34:12.618Z,98913.94
2019-04-21T08:36:44.904Z,98926.27
2019-04-21T08:39:07.334Z,98911.89
2019-04-21T08:41:57.162Z,98910.58
2019-04-21T08:44:36.042Z,98898.62
2019-04-21T08:46:58.899Z,98903.05
2019-04-21T08:49:26.448Z,98909.22
2019-04-21T08:52:15.226Z,98906.00
2019-04-21T08:54:38.368Z,98884.41
2019-04-21T08:57:34.041Z,98891.60
2019-04-21T09:00:01.496Z,98876.27
2019-04-21T09:02:35.171Z,98871.92
2019-04-21T09:04:58.639Z,98864.04
2019-04-21T09:10:02.955Z,98874.55
2019-04-21T09:12:34.618Z,98867.41
2019-04-21T09:15:06.383Z,98854.40
2019-04-21T09:17:28.679Z,98852.52
2019-04-21T09:20:33.333Z,98837.33
2019-04-21T09:23:03.595Z,98828.84
2019-04-21T09:25:38.979Z,98829.17
2019-04-21T09:28:00.807Z,98827.22
2019-04-21T09:30:19.826Z,98826.44
2019-04-21T09:32:53.060Z,98816.35
2019-04-21T09:35:22.317Z,98809.58
2019-04-21T09:38:00.328Z,98810.89
2019-04-21T09:40:37.998Z,98823.53
2019-04-21T09:43:06.496Z,98814.44
2019-04-21T09:45:54.128Z,98813.89
2019-04-21T09:48:24.747Z,98818.20
2019-04-21T09:50:55.160Z,98814.99
2019-04-21T09:53:33.244Z,98826.85
2019-04-21T09:56:01.738Z,98809.00
2019-04-21T09:58:34.841Z,98802.98
2019-04-21T10:01:13.571Z,98803.62
2019-04-21T10:03:59.690Z,98804.85
2019-04-21T10:06:26.038Z,98806.93
2019-04-21T10:09:01.310Z,98803.83
2019-04-21T10:11:27.131Z,98804.02
2019-04-21T10:13:56.671Z,98786.05
2019-04-21T10:16:27.740Z,98781.36
2019-04-21T10:18:57.237Z,98770.17
2019-04-21T10:21:28.032Z,98777.14
2019-04-21T10:24:04.267Z,98774.23
2019-04-21T10:26:33.800Z,98760.55
2019-04-21T10:29:08.277Z,98752.39
2019-04-21T10:31:34.667Z,98748.77
2019-04-21T10:34:05.267Z,98758.98
2019-04-21T10:36:35.149Z,98749.98
2019-04-21T10:39:07.194Z,98734.83
2019-04-21T10:41:45.631Z,98735.27
2019-04-21T10:44:16.889Z,98746.16
2019-04-21T10:46:50.010Z,98746.62
2019-04-21T10:49:22.534Z,98739.22
2019-04-21T10:51:52.972Z,98734.03
2019-04-21T10:54:24.063Z,98728.66
2019-04-21T10:56:56.705Z,98730.09
2019-04-21T10:59:26.847Z,98727.31
2019-04-21T11:01:56.827Z,98721.45
2019-04-21T11:04:33.661Z,98727.08
2019-04-21T11:07:06.779Z,98720.94
2019-04-21T11:09:32.218Z,98715.91
2019-04-21T11:12:02.095Z,98712.92
2019-04-21T11:14:31.904Z,98707.78
2019-04-21T11:17:04.021Z,98705.63
2019-04-21T11:19:34.774Z,98705.14
2019-04-21T11:22:05.048Z,98697.41
2019-04-21T11:24:36.725Z,98697.13
2019-04-21T11:27:06.750Z,98693.19
2019-04-21T11:29:37.145Z,98696.48
2019-04-21T11:32:07.221Z,98710.94
2019-04-21T11:34:36.832Z,98678.16
2019-04-21T11:37:28.202Z,98675.53
2019-04-21T11:40:03.978Z,98672.02
2019-04-21T11:42:30.705Z,98660.27
2019-04-21T11:45:08.461Z,98662.88
2019-04-21T11:47:40.688Z,98658.94
2019-04-21T11:50:11.026Z,98655.29
2019-04-21T11:53:01.124Z,98674.30
2019-04-21T11:55:34.294Z,98662.56
2019-04-21T11:58:03.475Z,98661.11
2019-04-21T12:00:33.647Z,98658.14
2019-04-21T12:03:03.767Z,98661.58
2019-04-21T12:05:33.678Z,98653.98
2019-04-21T12:08:16.196Z,98647.75
2019-04-21T12:10:55.562Z,98632.53
2019-04-21T12:13:25.132Z,98629.44
2019-04-21T12:15:54.896Z,98643.81
2019-04-21T12:18:26.667Z,98645.72
2019-04-21T12:21:15.749Z,98650.39
2019-04-21T12:23:45.519Z,98656.85
2019-04-21T12:26:15.942Z,98638.11
2019-04-21T12:28:45.962Z,98639.00
2019-04-21T12:31:17.844Z,98628.25
2019-04-21T12:33:49.812Z,98642.40
2019-04-21T12:36:22.127Z,98634.23
2019-04-21T12:38:56.287Z,98617.05
2019-04-21T12:41:24.666Z,98626.44
2019-04-21T12:43:54.949Z,98621.67
2019-04-21T12:46:25.709Z,98620.16
2019-04-21T12:48:55.876Z,98605.37
2019-04-21T12:51:26.006Z,98609.67
2019-04-21T12:53:55.672Z,98591.28
2019-04-21T12:56:45.590Z,98598.05
2019-04-21T12:59:15.202Z,98592.69
2019-04-21T13:02:04.067Z,98583.95
2019-04-21T13:04:33.647Z,98576.57
2019-04-21T13:07:03.994Z,98577.98
2019-04-21T13:09:34.367Z,98575.15
2019-04-21T13:12:05.430Z,98575.11
2019-04-21T13:14:36.111Z,98559.70
2019-04-21T13:17:05.791Z,98560.59
2019-04-21T13:19:35.694Z,98559.54
2019-04-21T13:22:06.249Z,98553.13
2019-04-21T13:24:36.033Z,98551.65
2019-04-21T13:27:07.480Z,98545.06
2019-04-21T13:29:38.470Z,98534.25
2019-04-21T13:32:08.901Z,98535.16
2019-04-21T13:34:59.108Z,98525.39
2019-04-21T13:37:29.736Z,98529.67
2019-04-21T13:40:27.510Z,98527.22
2019-04-21T13:42:41.974Z,98518.77
2019-04-21T13:45:10.091Z,98515.45
2019-04-21T13:47:40.768Z,98521.17
2019-04-21T13:50:31.090Z,98519.64
2019-04-21T13:53:20.867Z,98517.12
2019-04-21T13:55:50.893Z,98513.53
2019-04-21T13:58:20.401Z,98514.17
2019-04-21T14:00:50.554Z,98517.62
2019-04-21T14:03:23.439Z,98505.98
2019-04-21T14:05:54.030Z,98509.31
2019-04-21T14:08:25.154Z,98499.58
2019-04-21T14:11:15.483Z,98502.07
2019-04-21T14:13:45.158Z,98494.25
2019-04-21T14:16:15.933Z,98474.08
2019-04-21T14:18:45.830Z,98475.89
2019-04-21T14:21:15.520Z,98477.20
2019-04-21T14:23:49.004Z,98479.20
2019-04-21T14:26:18.462Z,98469.77
2019-04-21T14:28:49.175Z,98475.95
2019-04-21T14:31:20.091Z,98462.16
2019-04-21T14:33:50.070Z,98469.21
2019-04-21T14:36:20.950Z,98474.03
2019-04-21T14:38:50.700Z,98475.75
2019-04-21T14:41:20.181Z,98473.58
2019-04-21T14:43:51.157Z,98453.35
2019-04-21T14:46:22.255Z,98451.42
2019-04-21T14:49:13.071Z,98457.72
2019-04-21T14:51:45.354Z,98451.39
2019-04-21T14:54:17.317Z,98441.77
2019-04-21T14:56:47.298Z,98456.59
2019-04-21T14:59:17.237Z,98444.95
2019-04-21T15:01:46.802Z,98452.49
2019-04-21T15:04:35.731Z,98452.55
2019-04-21T15:07:05.899Z,98440.33
2019-04-21T15:09:37.668Z,98442.99
2019-04-21T15:12:09.765Z,98440.55
2019-04-21T15:14:40.293Z,98440.58
2019-04-21T15:17:10.027Z,98438.36
2019-04-21T15:19:42.922Z,98429.70
2019-04-21T15:22:10.772Z,98431.36
2019-04-21T15:25:00.638Z,98434.53
2019-04-21T15:27:50.674Z,98436.55
2019-04-21T15:30:20.842Z,98433.66
2019-04-21T15:32:50.678Z,98429.14
2019-04-21T15:35:40.662Z,98421.69
2019-04-21T15:38:11.585Z,98421.21
2019-04-21T15:40:49.652Z,98415.51
2019-04-21T15:43:15.261Z,98418.17
2019-04-21T15:45:46.791Z,98398.91
2019-04-21T15:48:16.370Z,98413.38
2019-04-21T15:50:46.026Z,98411.22
2019-04-21T15:53:17.275Z,98408.94
2019-04-21T15:55:48.727Z,98399.86
2019-04-21T15:58:20.612Z,98403.86
2019-04-21T16:01:12.314Z,98407.37
2019-04-21T16:03:42.855Z,98409.05
2019-04-21T16:06:32.010Z,98395.39
2019-04-21T16:09:03.275Z,98390.63
2019-04-21T16:11:53.507Z,98389.87
2019-04-21T16:14:24.706Z,98392.47
2019-04-21T16:16:54.348Z,98390.19
2019-04-21T16:19:24.918Z,98392.81
2019-04-21T16:21:54.772Z,98389.99
2019-04-21T16:24:25.312Z,98383.48
2019-04-21T16:26:56.359Z,98381.66
2019-04-21T16:29:27.242Z,98374.11
2019-04-21T16:31:57.395Z,98374.55
2019-04-21T16:34:37.854Z,98371.19
2019-04-21T16:36:59.467Z,98374.28
2019-04-21T16:39:29.419Z,98372.44
2019-04-21T16:42:00.304Z,98370.42
2019-04-21T16:44:31.331Z,98365.09
2019-04-21T16:47:01.397Z,98365.01
2019-04-21T16:49:31.743Z,98358.78
2019-04-21T16:52:04.074Z,98358.66
2019-04-21T16:54:33.782Z,98354.92
2019-04-21T16:57:05.962Z,98353.02
2019-04-21T16:59:37.306Z,98351.28
2019-04-21T17:02:07.113Z,98350.81
2019-04-21T17:04:36.573Z,98350.06
2019-04-21T17:07:07.340Z,98342.96
2019-04-21T17:09:36.994Z,98354.33
2019-04-21T17:12:10.386Z,98350.53
2019-04-21T17:14:53.514Z,98345.39
2019-04-21T17:17:32.305Z,98344.95
2019-04-21T17:19:45.581Z,98346.09
2019-04-21T17:22:13.609Z,98345.47
2019-04-21T17:24:44.393Z,98345.89
2019-04-21T17:27:15.390Z,98343.20
2019-04-21T17:29:46.343Z,98342.64
2019-04-21T17:32:16.477Z,98341.48
2019-04-21T17:34:46.325Z,98343.53
2019-04-21T17:37:17.495Z,98338.53
2019-04-21T17:39:49.088Z,98340.05
2019-04-21T17:42:29.744Z,98342.30
2019-04-21T17:44:52.993Z,98337.20
2019-04-21T17:47:36.442Z,98340.44
2019-04-21T17:50:02.684Z,98342.61
2019-04-21T17:52:37.914Z,98343.19
2019-04-21T17:55:16.824Z,98339.86
2019-04-21T17:57:57.150Z,98340.53
2019-04-21T18:00:52.045Z,98340.73
2019-04-21T18:03:01.747Z,98340.37
2019-04-21T18:05:40.972Z,98339.39
2019-04-21T18:08:02.818Z,98344.23
2019-04-21T18:10:36.817Z,98346.45
2019-04-21T18:12:59.162Z,98347.75
2019-04-21T18:15:42.414Z,98349.56
2019-04-21T18:17:54.576Z,98349.80
2019-04-21T18:20:26.188Z,98356.41
2019-04-21T18:22:59.022Z,98355.45
2019-04-21T18:25:44.440Z,98356.81
2019-04-21T18:28:02.939Z,98361.09
2019-04-21T18:33:21.282Z,98361.87
2019-04-21T18:35:48.486Z,98356.51
2019-04-21T18:38:56.955Z,98360.63
2019-04-21T18:41:17.413Z,98362.78
2019-04-21T18:44:19.751Z,98363.44
2019-04-21T18:46:51.232Z,98359.22
2019-04-21T18:48:59.004Z,98361.30
2019-04-21T18:51:41.017Z,98367.27
2019-04-21T18:54:25.406Z,98363.10
2019-04-21T18:56:33.863Z,98367.02
2019-04-21T18:59:04.446Z,98370.66
2019-04-21T19:01:36.548Z,98369.81
2019-04-21T19:04:12.442Z,98371.73
2019-04-21T19:06:56.201Z,98374.12
2019-04-21T19:09:44.568Z,98372.19
2019-04-21T19:12:00.733Z,98378.34
2019-04-21T19:17:15.960Z,98384.56
2019-04-21T19:22:10.461Z,98381.62
2019-04-21T19:24:41.372Z,98381.73
2019-04-21T19:27:12.080Z,98383.64
2019-04-21T19:29:51.916Z,98390.20
2019-04-21T19:32:45.714Z,98392.33
2019-04-21T19:34:51.272Z,98389.86
2019-04-21T19:37:22.948Z,98387.52
2019-04-21T19:40:03.549Z,98384.69
2019-04-21T19:42:32.257Z,98384.73
2019-04-21T19:45:05.266Z,98384.50
2019-04-21T19:47:44.429Z,98382.77
2019-04-21T19:50:21.724Z,98385.25
2019-04-21T19:52:39.880Z,98376.43
2019-04-21T19:54:58.647Z,98377.47
2019-04-21T19:57:49.180Z,98377.47
2019-04-21T20:00:19.440Z,98376.23
2019-04-21T20:02:50.284Z,98372.00
2019-04-21T20:05:32.688Z,98370.71
2019-04-21T20:08:08.272Z,98370.23
2019-04-21T20:10:44.445Z,98369.08
2019-04-21T20:13:26.240Z,98365.52
2019-04-21T20:15:45.971Z,98361.09
2019-04-21T20:18:14.045Z,98361.94
2019-04-21T20:20:30.974Z,98359.48
2019-04-21T20:23:03.048Z,98357.38
2019-04-21T20:25:41.821Z,98361.97
2019-04-21T20:28:13.318Z,98363.11
2019-04-21T20:30:56.012Z,98366.91
2019-04-21T20:36:23.804Z,98360.98
2019-04-21T20:38:40.792Z,98360.83
2019-04-21T20:41:33.833Z,98362.98
2019-04-21T20:44:11.940Z,98363.63
2019-04-21T20:46:39.885Z,98362.80
2019-04-21T20:49:08.365Z,98359.69
2019-04-21T20:51:45.181Z,98361.33
2019-04-21T20:54:16.050Z,98358.20
2019-04-21T20:56:45.981Z,98359.34
2019-04-21T20:59:28.788Z,98361.47
2019-04-21T21:02:06.872Z,98356.21
2019-04-21T21:04:31.287Z,98353.77
2019-04-21T21:07:41.670Z,98356.70
2019-04-21T21:10:00.394Z,98352.88
2019-04-21T21:12:39.107Z,98352.70
2019-04-21T21:14:57.574Z,98356.88
2019-04-21T21:17:46.726Z,98354.23
2019-04-21T21:20:07.585Z,98349.82
2019-04-21T21:22:35.118Z,98346.89
2019-04-21T21:25:06.180Z,98341.31
2019-04-21T21:27:33.398Z,98340.80
2019-04-21T21:30:09.721Z,98343.23
2019-04-21T21:32:42.797Z,98345.52
2019-04-21T21:35:33.551Z,98343.05
2019-04-21T21:38:08.373Z,98343.17
2019-04-21T21:40:30.445Z,98339.37
2019-04-21T21:42:49.560Z,98341.30
2019-04-21T21:45:22.320Z,98346.36
2019-04-21T21:48:15.032Z,98348.47
2019-04-21T21:50:29.852Z,98342.72
2019-04-21T21:53:04.277Z,98343.62
2019-04-21T21:55:44.957Z,98346.34
2019-04-21T21:58:19.377Z,98338.67
2019-04-21T22:00:52.885Z,98342.40
2019-04-21T22:03:27.434Z,98337.33
2019-04-21T22:05:59.797Z,98337.37
2019-04-21T22:08:22.508Z,98335.89
2019-04-21T22:10:52.993Z,98329.70
2019-04-21T22:13:34.123Z,98330.66
2019-04-21T22:15:56.471Z,98329.93
2019-04-21T22:18:42.082Z,98327.91
2019-04-21T22:21:11.489Z,98332.46
2019-04-21T22:23:39.931Z,98331.09
2019-04-21T22:26:01.019Z,98329.73
2019-04-21T22:28:31.604Z,98326.97
2019-04-21T22:31:08.167Z,98332.78
2019-04-21T22:33:56.424Z,98324.33
2019-04-21T22:36:35.429Z,98327.06
2019-04-21T22:39:15.081Z,98329.41
2019-04-21T22:41:48.418Z,98326.41
2019-04-21T22:44:20.557Z,98328.66
2019-04-21T22:46:58.135Z,98326.95
2019-04-21T22:49:23.587Z,98322.36
2019-04-21T22:52:11.109Z,98317.95
2019-04-21T22:54:40.894Z,98320.83
2019-04-21T22:57:14.841Z,98319.28
2019-04-21T22:59:40.453Z,98321.28
2019-04-21T23:02:17.643Z,98317.10
2019-04-21T23:04:46.159Z,98314.95
2019-04-21T23:07:15.858Z,98316.30
2019-04-21T23:09:45.506Z,98318.53
2019-04-21T23:12:38.176Z,98320.36
2019-04-21T23:15:34.617Z,98317.17
2019-04-21T23:18:13.012Z,98312.91
2019-04-21T23:20:47.733Z,98316.20
2019-04-21T23:23:16.129Z,98311.95
2019-04-21T23:25:45.942Z,98308.00
2019-04-21T23:28:15.790Z,98306.86
2019-04-21T23:31:11.096Z,98304.47
2019-04-21T23:33:28.980Z,98304.47
2019-04-21T23:36:07.420Z,98303.32
2019-04-21T23:38:39.682Z,98297.28
2019-04-21T23:41:21.481Z,98301.80
2019-04-21T23:44:13.552Z,98295.81
2019-04-21T23:46:42.629Z,98293.00
2019-04-21T23:49:26.896Z,98293.86
2019-04-21T23:51:51.172Z,98287.52
2019-04-21T23:54:15.700Z,98288.11
2019-04-21T23:57:14.151Z,98292.05
2019-04-21T23:59:42.199Z,98288.86
